Time;durP1;ratioP1;P1;durP2;ratioP2;P2;SDS_P1;SDS_P2;PMS_P1;PMS_P2;Temp;Humidity;BMP_temperature;BMP_pressure;BME280_temperature;BME280_humidity;BME280_pressure;Samples;Min_cycle;Max_cycle;Signal;HPM_P1;HPM_P2
2022/07/14 00:00:39;;;;;;;1.53;1.17;;;22.80;83.80;;;;;;5052964;28;20201;-69
2022/07/14 00:03:05;;;;;;;1.85;1.25;;;22.90;84.30;;;;;;5069685;28;20218;-69
2022/07/14 00:05:32;;;;;;;1.30;1.20;;;22.90;83.90;;;;;;5069039;28;20186;-69
2022/07/14 00:07:58;;;;;;;1.40;1.30;;;22.90;83.80;;;;;;5066058;28;20202;-69
2022/07/14 00:10:25;;;;;;;4.57;1.40;;;22.90;83.40;;;;;;5086240;28;20179;-71
2022/07/14 00:12:53;;;;;;;2.50;1.40;;;22.80;83.20;;;;;;5065904;28;20194;-69
2022/07/14 00:15:19;;;;;;;1.50;1.40;;;22.80;82.40;;;;;;5034878;28;20217;-69
2022/07/14 00:17:46;;;;;;;2.07;1.53;;;22.80;82.40;;;;;;5063398;28;20217;-71
2022/07/14 00:20:13;;;;;;;1.50;1.40;;;22.80;83.00;;;;;;5082392;28;20208;-70
2022/07/14 00:22:41;;;;;;;1.60;1.30;;;22.80;82.90;;;;;;5051709;28;20656;-71
2022/07/14 00:25:08;;;;;;;1.95;1.10;;;22.80;82.50;;;;;;5087733;28;20186;-70
2022/07/14 00:27:37;;;;;;;1.47;1.13;;;22.80;81.30;;;;;;5052780;28;20198;-70
2022/07/14 00:30:06;;;;;;;3.15;1.10;;;22.80;80.30;;;;;;5086573;28;20197;-71
2022/07/14 00:32:35;;;;;;;1.40;1.05;;;22.80;80.40;;;;;;5069648;28;20182;-69
2022/07/14 00:35:03;;;;;;;1.50;1.40;;;22.80;80.50;;;;;;5063429;28;20194;-69
2022/07/14 00:37:29;;;;;;;1.30;1.00;;;22.80;80.80;;;;;;5086843;28;20190;-71
2022/07/14 00:39:56;;;;;;;2.50;1.30;;;22.70;80.10;;;;;;5052241;28;20546;-71
2022/07/14 00:42:36;;;;;;;2.67;1.33;;;22.70;80.20;;;;;;5088494;28;20206;-69
2022/07/14 00:45:16;;;;;;;2.40;1.30;;;22.70;79.80;;;;;;5071218;28;20204;-69
2022/07/14 00:47:45;;;;;;;1.10;1.00;;;22.60;79.90;;;;;;5054205;28;20207;-71
2022/07/14 00:50:14;;;;;;;5.13;1.33;;;22.60;80.20;;;;;;5058485;28;20268;-69
2022/07/14 00:52:43;;;;;;;3.53;1.33;;;22.60;80.10;;;;;;5083844;28;21032;-69
2022/07/14 00:55:15;;;;;;;2.27;1.37;;;22.60;80.00;;;;;;5055119;28;20196;-69
2022/07/14 00:57:42;;;;;;;2.60;1.50;;;22.50;80.40;;;;;;5072953;28;20311;-69
2022/07/14 01:00:13;;;;;;;1.70;1.37;;;22.50;80.40;;;;;;5091791;28;20654;-70
2022/07/14 01:02:42;;;;;;;2.75;1.42;;;22.50;80.40;;;;;;5090322;28;20662;-69
2022/07/14 01:05:09;;;;;;;3.17;1.60;;;22.50;80.40;;;;;;5071696;28;20175;-69
2022/07/14 01:07:36;;;;;;;1.53;1.27;;;22.40;80.50;;;;;;5072965;28;20205;-71
2022/07/14 01:10:04;;;;;;;1.60;1.40;;;22.40;81.10;;;;;;5073035;28;20200;-70
2022/07/14 01:12:31;;;;;;;3.50;1.30;;;22.40;81.50;;;;;;5072657;28;20186;-69
2022/07/14 01:14:58;;;;;;;1.80;1.40;;;22.40;81.30;;;;;;5092030;28;20182;-71
2022/07/14 01:17:24;;;;;;;2.80;1.47;;;22.40;81.50;;;;;;5090755;28;20222;-71
2022/07/14 01:19:50;;;;;;;2.23;1.60;;;22.30;81.60;;;;;;5075885;28;20195;-72
2022/07/14 01:22:17;;;;;;;2.43;1.70;;;22.30;82.00;;;;;;5084031;28;20300;-69
2022/07/14 01:24:45;;;;;;;2.07;1.50;;;22.30;82.00;;;;;;5089916;28;20182;-69
2022/07/14 01:27:12;;;;;;;2.20;1.57;;;22.30;81.80;;;;;;5090960;28;20680;-69
2022/07/14 01:29:38;;;;;;;2.27;1.50;;;22.30;81.50;;;;;;5091315;28;20185;-71
2022/07/14 01:32:05;;;;;;;3.37;1.40;;;22.30;81.40;;;;;;5071299;28;20197;-69
2022/07/14 01:34:31;;;;;;;3.90;1.50;;;22.20;81.20;;;;;;5087618;28;20274;-69
2022/07/14 01:36:57;;;;;;;4.43;1.57;;;22.20;80.80;;;;;;5063252;28;20201;-69
2022/07/14 01:39:24;;;;;;;3.70;1.30;;;22.20;80.60;;;;;;5090335;28;20181;-69
2022/07/14 01:41:50;;;;;;;1.90;1.10;;;22.20;80.50;;;;;;5072835;28;20198;-70
2022/07/14 01:44:20;;;;;;;2.70;1.57;;;22.20;80.50;;;;;;5071797;28;20182;-70
2022/07/14 01:46:46;;;;;;;2.67;1.73;;;22.20;80.60;;;;;;5071344;28;20182;-70
2022/07/14 01:49:13;;;;;;;4.97;1.50;;;22.20;80.60;;;;;;5089931;28;20194;-69
2022/07/14 01:51:40;;;;;;;3.67;1.40;;;22.20;80.70;;;;;;5090922;28;20198;-70
2022/07/14 01:54:07;;;;;;;2.40;1.60;;;22.20;81.30;;;;;;5090094;28;20239;-70
2022/07/14 01:56:39;;;;;;;4.17;1.70;;;22.20;81.90;;;;;;5088763;28;20714;-69
2022/07/14 01:59:05;;;;;;;2.47;1.83;;;22.20;82.40;;;;;;5090225;28;20239;-69
2022/07/14 02:01:41;;;;;;;2.47;1.83;;;22.30;82.60;;;;;;5090115;28;20174;-69
2022/07/14 02:04:16;;;;;;;3.47;1.50;;;22.30;82.50;;;;;;5090037;28;20182;-69
2022/07/14 02:06:53;;;;;;;2.77;1.90;;;22.30;82.40;;;;;;5088192;28;20181;-70
2022/07/14 02:09:21;;;;;;;2.20;1.53;;;22.40;82.20;;;;;;5088108;28;20283;-69
2022/07/14 02:14:34;;;;;;;2.67;1.70;;;22.50;82.20;;;;;;5090867;28;20258;-69
2022/07/14 02:17:00;;;;;;;3.70;2.00;;;22.50;82.60;;;;;;5070276;28;20239;-69
2022/07/14 02:19:28;;;;;;;4.17;1.60;;;22.40;83.00;;;;;;5089111;28;20290;-70
2022/07/14 02:21:55;;;;;;;2.87;1.63;;;22.40;83.70;;;;;;5089788;28;20202;-69
2022/07/14 02:24:23;;;;;;;4.63;2.03;;;22.40;83.30;;;;;;5071829;28;20213;-69
2022/07/14 02:26:51;;;;;;;3.40;1.73;;;22.40;83.90;;;;;;5067947;28;20666;-71
2022/07/14 02:29:19;;;;;;;6.30;2.10;;;22.40;84.20;;;;;;5055255;28;20193;-69
2022/07/14 02:31:46;;;;;;;2.90;1.70;;;22.40;83.60;;;;;;5089331;28;20195;-69
2022/07/14 02:34:13;;;;;;;4.97;1.57;;;22.50;84.20;;;;;;5088868;28;20197;-70
2022/07/14 02:36:40;;;;;;;2.57;1.90;;;22.50;84.50;;;;;;5082521;28;20268;-69
2022/07/14 02:39:06;;;;;;;2.80;1.70;;;22.50;84.60;;;;;;5083041;28;20696;-69
2022/07/14 02:41:33;;;;;;;3.67;2.07;;;22.50;84.60;;;;;;5070130;28;20293;-71
2022/07/14 02:44:00;;;;;;;3.63;1.70;;;22.50;85.30;;;;;;5084135;28;20210;-70
2022/07/14 02:46:26;;;;;;;3.97;1.77;;;22.50;86.30;;;;;;5051044;28;20183;-69
2022/07/14 02:48:52;;;;;;;4.03;1.90;;;22.60;86.00;;;;;;5051010;28;20183;-69
2022/07/14 02:51:19;;;;;;;3.63;1.97;;;22.60;86.20;;;;;;5086256;28;20704;-69
2022/07/14 02:53:46;;;;;;;2.30;1.70;;;22.60;86.40;;;;;;5071160;28;20220;-69
2022/07/14 02:56:12;;;;;;;4.60;1.90;;;22.60;86.80;;;;;;5071064;28;20181;-71
2022/07/14 02:58:39;;;;;;;2.30;2.00;;;22.60;87.40;;;;;;5089861;28;20189;-69
2022/07/14 03:01:07;;;;;;;3.83;2.20;;;22.70;88.00;;;;;;5088422;28;20186;-69
2022/07/14 03:03:37;;;;;;;4.63;1.93;;;22.60;88.20;;;;;;5085675;28;20217;-69
2022/07/14 03:06:16;;;;;;;2.93;2.10;;;22.70;88.20;;;;;;5087792;28;20880;-69
2022/07/14 03:08:43;;;;;;;4.13;1.93;;;22.60;88.30;;;;;;5070407;28;20174;-69
2022/07/14 03:11:13;;;;;;;3.60;1.93;;;22.60;88.40;;;;;;5088512;28;20202;-69
2022/07/14 03:13:40;;;;;;;5.33;2.00;;;22.60;88.50;;;;;;5071046;28;20281;-69
2022/07/14 03:16:09;;;;;;;2.03;1.83;;;22.60;88.10;;;;;;5088371;28;20217;-69
2022/07/14 03:18:39;;;;;;;3.40;2.27;;;22.60;87.50;;;;;;5088753;28;20182;-70
2022/07/14 03:21:12;;;;;;;6.37;1.83;;;22.70;86.90;;;;;;5082574;28;20213;-69
2022/07/14 03:23:40;;;;;;;2.67;1.70;;;22.70;86.70;;;;;;5050856;28;20206;-69
2022/07/14 03:26:06;;;;;;;3.30;1.90;;;22.70;86.70;;;;;;5050401;28;20228;-70
2022/07/14 03:28:33;;;;;;;2.77;1.83;;;22.70;86.70;;;;;;5089012;28;20182;-69
2022/07/14 03:30:59;;;;;;;2.60;1.60;;;22.70;87.10;;;;;;5088931;28;20178;-69
2022/07/14 03:33:26;;;;;;;2.17;1.90;;;22.70;87.80;;;;;;5067783;28;20183;-71
2022/07/14 03:35:53;;;;;;;3.60;2.00;;;22.70;88.00;;;;;;5050395;28;20229;-69
2022/07/14 03:38:19;;;;;;;4.30;2.10;;;22.70;88.50;;;;;;5068558;28;20210;-69
2022/07/14 03:40:46;;;;;;;2.63;1.87;;;22.70;89.00;;;;;;5089258;28;20190;-70
2022/07/14 03:43:12;;;;;;;4.90;2.10;;;22.70;89.30;;;;;;5087010;28;20221;-69
2022/07/14 03:45:39;;;;;;;3.00;2.00;;;22.70;90.20;;;;;;5088800;28;20261;-69
2022/07/14 03:48:07;;;;;;;3.23;2.00;;;22.70;90.40;;;;;;5070052;28;20178;-69
2022/07/14 03:50:36;;;;;;;4.53;2.10;;;22.70;90.70;;;;;;5063882;28;20185;-69
2022/07/14 03:53:04;;;;;;;4.30;1.90;;;22.60;90.90;;;;;;5079383;28;20289;-71
2022/07/14 03:55:33;;;;;;;3.40;2.20;;;22.70;91.10;;;;;;5083294;28;20637;-70
2022/07/14 03:58:00;;;;;;;4.27;2.00;;;22.60;91.10;;;;;;5088168;28;20182;-69
2022/07/14 04:00:27;;;;;;;3.33;1.80;;;22.70;91.40;;;;;;5068079;28;20194;-69
2022/07/14 04:02:55;;;;;;;2.93;1.93;;;22.70;91.20;;;;;;5088383;28;20280;-70
2022/07/14 04:05:22;;;;;;;2.37;2.00;;;22.70;91.20;;;;;;5087834;28;20190;-69
2022/07/14 04:07:49;;;;;;;3.53;2.00;;;22.70;91.10;;;;;;5051434;28;20186;-69
2022/07/14 04:10:15;;;;;;;3.70;2.40;;;22.70;91.30;;;;;;5067219;28;20187;-68
2022/07/14 04:12:43;;;;;;;2.10;1.90;;;22.70;91.20;;;;;;5084709;28;20213;-70
2022/07/14 04:15:10;;;;;;;5.00;1.90;;;22.70;91.10;;;;;;5084542;28;20206;-69
2022/07/14 04:17:37;;;;;;;2.97;1.93;;;22.80;91.20;;;;;;5086304;28;20241;-69
2022/07/14 04:20:04;;;;;;;5.00;1.77;;;22.80;91.40;;;;;;5069504;28;20198;-69
2022/07/14 04:22:34;;;;;;;3.67;1.93;;;22.80;90.60;;;;;;5087730;28;20202;-71
2022/07/14 04:25:00;;;;;;;5.07;2.00;;;22.80;90.40;;;;;;5080883;28;20688;-68
2022/07/14 04:27:27;;;;;;;1.93;1.73;;;22.90;90.60;;;;;;5069030;28;20198;-68
2022/07/14 04:29:54;;;;;;;3.20;1.80;;;22.90;90.90;;;;;;5063762;28;20190;-70
2022/07/14 04:32:20;;;;;;;3.40;1.90;;;23.00;91.10;;;;;;5082689;28;20194;-70
2022/07/14 04:34:47;;;;;;;2.63;1.70;;;23.00;91.30;;;;;;5049163;28;20792;-68
2022/07/14 04:37:14;;;;;;;3.47;1.80;;;23.00;90.70;;;;;;5075684;28;20676;-69
2022/07/14 04:39:40;;;;;;;3.42;1.60;;;23.10;90.80;;;;;;5085534;28;20276;-69
2022/07/14 04:42:07;;;;;;;4.63;1.60;;;23.10;91.00;;;;;;5067480;28;20214;-68
2022/07/14 04:44:34;;;;;;;2.13;1.80;;;23.20;91.50;;;;;;5085083;28;20186;-70
2022/07/14 04:47:00;;;;;;;2.72;1.98;;;23.20;91.50;;;;;;5067981;28;20184;-69
2022/07/14 04:52:11;;;;;;;2.13;1.70;;;23.30;91.20;;;;;;5087145;28;20185;-69
2022/07/14 04:54:37;;;;;;;4.45;2.00;;;23.40;91.10;;;;;;5088040;28;20194;-69
2022/07/14 04:57:04;;;;;;;2.65;1.90;;;23.40;90.90;;;;;;5068251;28;20263;-71
2022/07/14 04:59:31;;;;;;;2.60;1.65;;;23.50;91.00;;;;;;5087210;28;20623;-69
2022/07/14 05:01:58;;;;;;;3.47;1.83;;;23.50;92.00;;;;;;5087338;28;20214;-69
2022/07/14 05:04:24;;;;;;;5.03;1.88;;;23.60;91.60;;;;;;5066709;28;20191;-71
2022/07/14 05:06:50;;;;;;;3.30;1.90;;;23.60;91.40;;;;;;5086319;28;20186;-69
2022/07/14 05:09:21;;;;;;;2.20;1.80;;;23.60;91.30;;;;;;5086260;28;20259;-69
2022/07/14 05:11:47;;;;;;;6.43;2.15;;;23.70;91.80;;;;;;5085884;28;20696;-69
2022/07/14 05:14:13;;;;;;;6.35;2.10;;;23.70;91.90;;;;;;5072772;28;20182;-69
2022/07/14 05:16:39;;;;;;;4.22;1.90;;;23.70;91.60;;;;;;5047616;28;20705;-70
2022/07/14 05:19:06;;;;;;;3.58;1.98;;;23.80;92.10;;;;;;5085005;28;20261;-69
2022/07/14 05:21:33;;;;;;;4.75;2.17;;;23.80;92.10;;;;;;5065481;28;20273;-71
2022/07/14 05:24:00;;;;;;;2.57;2.03;;;23.90;91.90;;;;;;5052234;28;20182;-68
2022/07/14 05:26:26;;;;;;;4.55;2.05;;;23.90;92.30;;;;;;5059827;28;20194;-68
2022/07/14 05:28:52;;;;;;;5.40;2.20;;;24.00;92.30;;;;;;5086727;28;20193;-70
2022/07/14 05:31:20;;;;;;;32.40;4.13;;;24.00;92.00;;;;;;5068723;28;20593;-69
2022/07/14 05:33:50;;;;;;;7.18;2.45;;;24.10;92.30;;;;;;5089518;28;20261;-68
2022/07/14 05:36:16;;;;;;;3.95;2.60;;;24.20;91.70;;;;;;5089127;28;20194;-68
2022/07/14 05:38:42;;;;;;;3.88;2.40;;;24.40;91.60;;;;;;5090375;28;20182;-68
2022/07/14 05:41:09;;;;;;;4.75;2.20;;;24.50;92.00;;;;;;5087442;28;20194;-68
2022/07/14 05:43:35;;;;;;;3.80;2.20;;;24.60;92.30;;;;;;5072617;28;20221;-69
2022/07/14 05:46:10;;;;;;;5.43;2.40;;;24.70;92.60;;;;;;5069034;28;20598;-68
2022/07/14 05:48:37;;;;;;;5.18;2.55;;;24.70;93.30;;;;;;5067465;28;20192;-69
2022/07/14 05:51:10;;;;;;;6.53;2.85;;;24.90;94.90;;;;;;5089267;28;20182;-69
2022/07/14 05:53:38;;;;;;;6.72;2.58;;;25.10;95.60;;;;;;5085471;28;20273;-67
2022/07/14 05:56:07;;;;;;;7.25;2.58;;;25.10;96.20;;;;;;5042243;28;20299;-68
2022/07/14 05:58:35;;;;;;;5.35;2.53;;;25.30;96.90;;;;;;5089143;28;20178;-69
2022/07/14 06:01:03;;;;;;;3.63;2.67;;;25.40;98.50;;;;;;5084756;28;20194;-71
2022/07/14 06:03:30;;;;;;;4.22;2.90;;;25.50;99.00;;;;;;5087539;28;20271;-69
2022/07/14 06:06:00;;;;;;;7.32;3.20;;;25.70;99.50;;;;;;5089470;28;20209;-68
2022/07/14 06:08:28;;;;;;;7.43;3.15;;;25.80;99.90;;;;;;5087071;28;20250;-68
2022/07/14 06:10:56;;;;;;;8.75;3.17;;;26.00;99.90;;;;;;5090601;28;20185;-66
2022/07/14 06:13:32;;;;;;;9.70;3.55;;;26.00;99.90;;;;;;5090669;28;20186;-67
2022/07/14 06:15:58;;;;;;;7.15;3.15;;;26.00;99.90;;;;;;5068547;28;20608;-66
2022/07/14 06:18:26;;;;;;;6.03;3.10;;;26.10;99.90;;;;;;5034762;28;20190;-66
2022/07/14 06:20:54;;;;;;;5.68;3.25;;;26.30;99.90;;;;;;5070016;28;20248;-67
2022/07/14 06:23:20;;;;;;;4.45;3.03;;;26.30;99.90;;;;;;5086133;28;20233;-67
2022/07/14 06:25:47;;;;;;;10.27;3.20;;;26.30;99.90;;;;;;5054970;28;20197;-66
2022/07/14 06:28:13;;;;;;;8.15;3.13;;;26.40;99.90;;;;;;5089567;28;20182;-66
2022/07/14 06:30:40;;;;;;;5.65;2.95;;;26.50;99.90;;;;;;5090499;28;20182;-66
2022/07/14 06:33:07;;;;;;;6.82;2.92;;;26.60;99.90;;;;;;5089580;28;20182;-67
2022/07/14 06:35:33;;;;;;;7.25;3.40;;;26.60;99.90;;;;;;5090214;28;20483;-67
2022/07/14 06:38:00;;;;;;;7.70;2.97;;;26.70;99.90;;;;;;5070635;28;20217;-67
2022/07/14 06:40:26;;;;;;;14.63;3.50;;;26.80;99.90;;;;;;5090109;28;20261;-66
2022/07/14 06:42:52;;;;;;;6.65;2.90;;;26.80;99.90;;;;;;5069717;28;20199;-66
2022/07/14 06:45:19;;;;;;;7.30;3.42;;;26.90;99.90;;;;;;5069684;28;20189;-70
2022/07/14 06:47:46;;;;;;;5.90;2.90;;;27.00;99.90;;;;;;5071736;28;20192;-67
2022/07/14 06:50:12;;;;;;;6.43;2.97;;;27.00;99.90;;;;;;5077598;28;20269;-65
2022/07/14 06:52:39;;;;;;;8.95;2.88;;;27.10;99.90;;;;;;5071392;28;20242;-67
2022/07/14 06:55:07;;;;;;;4.15;2.65;;;27.20;99.90;;;;;;5071009;28;20277;-65
2022/07/14 06:57:33;;;;;;;4.60;2.75;;;27.20;99.90;;;;;;5087166;28;20273;-69
2022/07/14 06:59:59;;;;;;;5.70;2.90;;;27.30;99.90;;;;;;5089600;28;20194;-66
2022/07/14 07:02:26;;;;;;;6.30;2.85;;;27.40;99.90;;;;;;5089259;28;20284;-64
2022/07/14 07:07:37;;;;;;;6.15;3.25;;;27.50;99.90;;;;;;5086739;28;20179;-66
2022/07/14 07:10:04;;;;;;;7.07;2.88;;;27.60;99.90;;;;;;5071510;28;20706;-68
2022/07/14 07:12:31;;;;;;;8.60;3.25;;;27.60;99.90;;;;;;5082826;28;20228;-67
2022/07/14 07:14:57;;;;;;;7.63;3.08;;;27.70;99.90;;;;;;5081926;28;20190;-66
2022/07/14 07:17:23;;;;;;;4.15;2.70;;;27.80;99.90;;;;;;5064473;28;20214;-67
2022/07/14 07:19:50;;;;;;;3.78;2.63;;;27.80;99.90;;;;;;5084790;28;20269;-66
2022/07/14 07:22:16;;;;;;;4.15;2.67;;;27.90;99.90;;;;;;5087209;28;20214;-68
2022/07/14 07:24:43;;;;;;;5.32;2.90;;;28.00;99.90;;;;;;5082425;28;21006;-65
2022/07/14 07:27:09;;;;;;;4.38;2.80;;;28.10;99.90;;;;;;5083336;28;21527;-65
2022/07/14 07:29:36;;;;;;;3.85;2.70;;;28.20;99.90;;;;;;5065939;28;20189;-66
2022/07/14 07:32:03;;;;;;;7.32;2.92;;;28.30;99.90;;;;;;5068538;28;20240;-70
2022/07/14 07:34:29;;;;;;;6.43;2.90;;;28.30;99.90;;;;;;5069833;28;20192;-65
2022/07/14 07:36:55;;;;;;;8.98;3.50;;;28.40;99.90;;;;;;5066886;28;20245;-68
2022/07/14 07:39:22;;;;;;;5.38;2.83;;;28.50;99.90;;;;;;5067435;28;20186;-65
2022/07/14 07:41:48;;;;;;;5.28;2.70;;;28.60;99.90;;;;;;5083145;28;20182;-66
2022/07/14 07:44:14;;;;;;;5.10;2.72;;;28.60;99.90;;;;;;5088377;28;20261;-67
2022/07/14 07:46:40;;;;;;;4.78;2.80;;;28.70;99.90;;;;;;5064069;28;20197;-67
2022/07/14 07:49:07;;;;;;;11.40;2.80;;;28.70;99.90;;;;;;5069529;28;20224;-65
2022/07/14 07:51:33;;;;;;;6.72;2.70;;;28.90;99.90;;;;;;5053834;28;20623;-66
2022/07/14 07:53:59;;;;;;;4.35;2.85;;;28.90;99.90;;;;;;5052722;28;20658;-65
2022/07/14 07:56:26;;;;;;;6.60;2.78;;;29.00;99.90;;;;;;5049379;28;20178;-66
2022/07/14 07:58:53;;;;;;;5.18;2.92;;;29.00;99.90;;;;;;5068185;28;20664;-67
2022/07/14 08:01:19;;;;;;;7.32;2.90;;;29.10;99.90;;;;;;5050130;28;20186;-65
2022/07/14 08:03:45;;;;;;;6.50;2.50;;;29.20;99.90;;;;;;5067372;28;20976;-65
2022/07/14 08:06:12;;;;;;;6.85;2.80;;;29.30;99.90;;;;;;5067520;28;20224;-65
2022/07/14 08:08:39;;;;;;;5.00;2.60;;;29.40;99.70;;;;;;5049694;28;20185;-67
2022/07/14 08:11:05;;;;;;;5.20;2.85;;;29.50;99.90;;;;;;5080879;28;20183;-67
2022/07/14 08:13:32;;;;;;;8.50;2.75;;;29.60;99.90;;;;;;5068310;28;20214;-70
2022/07/14 08:15:59;;;;;;;5.95;2.90;;;29.70;99.90;;;;;;5071157;28;20178;-66
2022/07/14 08:18:26;;;;;;;7.47;2.60;;;29.70;99.90;;;;;;5064198;28;20530;-67
2022/07/14 08:20:52;;;;;;;4.53;2.97;;;29.80;99.90;;;;;;5069721;28;20194;-67
2022/07/14 08:23:19;;;;;;;6.88;2.88;;;29.90;99.90;;;;;;5069307;28;20206;-68
2022/07/14 08:25:46;;;;;;;13.18;3.05;;;29.90;99.90;;;;;;5086407;28;20190;-69
2022/07/14 08:28:15;;;;;;;5.18;2.53;;;30.00;99.90;;;;;;5084506;28;20312;-66
2022/07/14 08:30:41;;;;;;;5.35;3.05;;;30.00;99.90;;;;;;5086199;28;20210;-68
2022/07/14 08:33:08;;;;;;;6.90;2.92;;;30.10;99.90;;;;;;5087429;28;20190;-68
2022/07/14 08:35:35;;;;;;;6.90;2.80;;;30.10;99.90;;;;;;5041620;28;20190;-70
2022/07/14 08:38:01;;;;;;;7.15;2.72;;;30.20;99.90;;;;;;5064447;28;20188;-66
2022/07/14 08:40:27;;;;;;;7.10;3.13;;;30.30;99.90;;;;;;5065396;28;20640;-66
2022/07/14 08:42:56;;;;;;;7.82;3.00;;;30.30;99.90;;;;;;5049532;28;20204;-70
2022/07/14 08:45:26;;;;;;;9.25;3.20;;;30.40;99.90;;;;;;5068581;28;20170;-70
2022/07/14 08:47:53;;;;;;;4.72;2.72;;;30.40;99.90;;;;;;5086615;28;20174;-68
2022/07/14 08:50:23;;;;;;;5.68;2.40;;;30.40;99.90;;;;;;5055825;28;20178;-68
2022/07/14 08:52:50;;;;;;;7.60;2.40;;;30.40;99.90;;;;;;5066482;28;20190;-68
2022/07/14 08:55:19;;;;;;;6.40;2.60;;;30.50;98.80;;;;;;5069148;28;20201;-66
2022/07/14 08:57:46;;;;;;;12.38;3.20;;;30.60;99.90;;;;;;5071033;28;20183;-68
2022/07/14 09:00:18;;;;;;;10.23;3.75;;;30.50;99.90;;;;;;5087201;28;20182;-69
2022/07/14 09:02:53;;;;;;;8.25;3.03;;;30.60;99.90;;;;;;5087965;28;20289;-71
2022/07/14 09:05:20;;;;;;;5.18;2.58;;;30.70;99.90;;;;;;5076382;28;20228;-69
2022/07/14 09:07:55;;;;;;;6.70;2.65;;;30.80;99.90;;;;;;5089832;28;20251;-71
2022/07/14 09:10:27;;;;;;;10.27;3.05;;;31.00;99.90;;;;;;5090558;28;20280;-70
2022/07/14 09:13:19;;;;;;;8.73;2.90;;;31.10;99.90;;;;;;5089775;28;20212;-70
2022/07/14 09:15:48;;;;;;;6.80;3.08;;;31.00;99.90;;;;;;5089198;28;20213;-71
2022/07/14 09:18:28;;;;;;;6.88;2.67;;;31.20;99.90;;;;;;5070859;28;20198;-70
2022/07/14 09:20:58;;;;;;;6.15;2.70;;;31.20;99.90;;;;;;5070832;28;20174;-70
2022/07/14 09:23:35;;;;;;;9.88;3.28;;;31.20;99.90;;;;;;5065556;28;20248;-71
2022/07/14 09:26:30;;;;;;;9.35;2.90;;;31.20;99.90;;;;;;5090459;28;20280;-72
2022/07/14 09:28:56;;;;;;;8.20;2.95;;;31.30;99.90;;;;;;5051117;28;20190;-71
2022/07/14 09:31:27;;;;;;;8.43;3.03;;;31.30;99.90;;;;;;5090818;28;20178;-70
2022/07/14 09:33:57;;;;;;;5.78;2.75;;;31.30;99.90;;;;;;5090462;28;20174;-70
2022/07/14 09:36:36;;;;;;;8.35;3.00;;;31.30;99.90;;;;;;5053762;28;20201;-70
2022/07/14 09:39:12;;;;;;;4.30;2.30;;;31.50;99.90;;;;;;5090879;28;20170;-69
2022/07/14 09:41:56;;;;;;;9.68;2.72;;;31.30;99.90;;;;;;5069402;28;20713;-71
2022/07/14 09:44:23;;;;;;;7.65;2.75;;;31.30;99.90;;;;;;5075506;28;20635;-70
2022/07/14 09:46:58;;;;;;;13.85;2.95;;;31.30;99.90;;;;;;5069551;28;20231;-71
2022/07/14 09:49:32;;;;;;;5.32;2.38;;;31.30;99.90;;;;;;5068463;28;20197;-69
2022/07/14 09:52:05;;;;;;;5.43;2.60;;;31.30;99.90;;;;;;5052432;28;20984;-71
2022/07/14 09:54:37;;;;;;;5.57;2.50;;;31.40;99.90;;;;;;5067793;28;20182;-71
2022/07/14 09:57:13;;;;;;;4.93;2.70;;;31.50;98.70;;;;;;5084344;28;20650;-70
2022/07/14 09:59:52;;;;;;;3.75;2.33;;;31.50;99.40;;;;;;5052294;28;20178;-71
2022/07/14 10:02:28;;;;;;;4.05;2.38;;;31.70;97.50;;;;;;5085038;28;20206;-71
2022/07/14 10:05:02;;;;;;;7.00;2.78;;;31.90;99.80;;;;;;5068552;28;20213;-71
2022/07/14 10:07:34;;;;;;;6.78;2.67;;;31.90;97.40;;;;;;5087230;28;20214;-70
2022/07/14 10:10:11;;;;;;;7.10;2.55;;;32.00;99.90;;;;;;5089391;28;20240;-70
2022/07/14 10:12:41;;;;;;;3.85;2.45;;;31.90;98.80;;;;;;5070684;28;20181;-72
2022/07/14 10:15:12;;;;;;;6.45;2.25;;;32.10;99.90;;;;;;5069205;28;20186;-70
2022/07/14 10:17:41;;;;;;;6.63;2.17;;;32.20;97.50;;;;;;5066856;28;20242;-71
2022/07/14 10:20:11;;;;;;;5.05;2.40;;;32.30;97.60;;;;;;5051169;28;20191;-70
2022/07/14 10:22:40;;;;;;;3.85;1.95;;;32.30;96.50;;;;;;5041763;28;20187;-70
2022/07/14 10:25:09;;;;;;;6.32;2.50;;;32.30;95.40;;;;;;5051232;28;20197;-70
2022/07/14 10:27:40;;;;;;;5.50;2.42;;;32.30;96.80;;;;;;5077260;28;20709;-70
2022/07/14 10:30:08;;;;;;;5.32;2.50;;;32.30;96.70;;;;;;5089427;28;20284;-70
2022/07/14 10:32:58;;;;;;;8.57;2.30;;;32.30;96.80;;;;;;5071718;28;20216;-70
2022/07/14 10:35:35;;;;;;;5.15;2.20;;;32.30;96.10;;;;;;5090226;28;20189;-71
2022/07/14 10:38:20;;;;;;;7.35;2.42;;;32.50;96.00;;;;;;5067083;28;20197;-72
2022/07/14 10:41:19;;;;;;;5.45;1.95;;;32.40;96.50;;;;;;5063338;28;20929;-71
2022/07/14 10:44:07;;;;;;;7.50;2.03;;;32.30;90.40;;;;;;5053377;28;20625;-71
2022/07/14 10:46:43;;;;;;;5.28;2.38;;;32.40;92.70;;;;;;5085467;28;21916;-71
2022/07/14 10:49:13;;;;;;;7.45;2.40;;;32.40;92.60;;;;;;5068165;28;20182;-71
2022/07/14 10:51:50;;;;;;;8.15;2.50;;;32.60;94.50;;;;;;5071109;28;20186;-71
2022/07/14 10:54:29;;;;;;;9.13;2.90;;;32.60;94.70;;;;;;5070935;28;20308;-72
2022/07/14 10:57:19;;;;;;;5.93;2.33;;;32.60;95.80;;;;;;5070404;28;20182;-72
2022/07/14 10:59:47;;;;;;;5.82;2.20;;;32.50;94.70;;;;;;5070836;28;20221;-72
2022/07/14 11:02:13;;;;;;;6.30;2.20;;;32.40;92.00;;;;;;5070314;28;20593;-71
2022/07/14 11:05:04;;;;;;;6.68;2.10;;;32.40;92.10;;;;;;5048724;28;20188;-71
2022/07/14 11:07:47;;;;;;;5.07;2.22;;;32.60;93.40;;;;;;5068934;28;20186;-71
2022/07/14 11:10:19;;;;;;;5.60;2.50;;;32.60;95.60;;;;;;5069710;28;20193;-70
2022/07/14 11:13:06;;;;;;;6.60;2.47;;;32.60;95.30;;;;;;5067059;28;20248;-70
2022/07/14 11:15:43;;;;;;;5.88;2.20;;;32.50;95.60;;;;;;5086530;28;20186;-71
2022/07/14 11:18:18;;;;;;;4.65;2.20;;;32.50;93.20;;;;;;5067630;28;20197;-72
2022/07/14 11:21:18;;;;;;;5.25;2.30;;;32.50;93.50;;;;;;5067935;28;21018;-70
2022/07/14 11:23:48;;;;;;;5.00;2.17;;;32.60;92.00;;;;;;5053608;28;20217;-72
2022/07/14 11:26:32;;;;;;;6.85;2.38;;;32.40;93.40;;;;;;5088465;28;20177;-70
2022/07/14 11:29:02;;;;;;;5.57;2.40;;;32.60;94.00;;;;;;5081816;28;20208;-71
2022/07/14 11:32:01;;;;;;;7.13;2.35;;;32.60;94.10;;;;;;5087573;28;20186;-71
2022/07/14 11:37:19;;;;;;;6.40;2.50;;;32.60;93.00;;;;;;5067966;28;20202;-71
2022/07/14 11:39:45;;;;;;;4.15;2.25;;;32.40;92.80;;;;;;5070268;28;20182;-71
2022/07/14 11:42:16;;;;;;;3.78;1.90;;;32.40;92.80;;;;;;5069574;28;20229;-70
2022/07/14 11:44:44;;;;;;;3.70;2.17;;;32.30;92.80;;;;;;5087486;28;20186;-70
2022/07/14 11:47:19;;;;;;;6.03;2.20;;;32.30;93.00;;;;;;5053075;28;20174;-70
2022/07/14 11:50:07;;;;;;;8.45;2.47;;;32.40;93.80;;;;;;5069461;28;20212;-70
2022/07/14 11:52:37;;;;;;;5.82;2.35;;;32.50;93.70;;;;;;5088268;28;20186;-70
2022/07/14 11:55:10;;;;;;;7.25;2.60;;;32.60;92.60;;;;;;5086757;28;20267;-70
2022/07/14 11:57:38;;;;;;;8.05;2.60;;;32.50;93.60;;;;;;5085731;28;20873;-72
2022/07/14 12:00:09;;;;;;;9.65;2.78;;;32.40;93.20;;;;;;5068821;28;20190;-70
2022/07/14 12:02:58;;;;;;;5.38;2.95;;;32.40;92.80;;;;;;5086486;28;20205;-72
2022/07/14 12:05:30;;;;;;;7.15;2.72;;;32.40;93.60;;;;;;5064843;28;20197;-70
2022/07/14 12:08:01;;;;;;;5.90;2.40;;;32.40;93.60;;;;;;5067573;28;20186;-71
2022/07/14 12:10:43;;;;;;;6.05;2.63;;;32.20;93.90;;;;;;5095255;28;20891;-70
2022/07/14 12:13:10;;;;;;;6.07;2.60;;;32.40;93.60;;;;;;5084009;28;20204;-71
2022/07/14 12:15:38;;;;;;;7.68;2.50;;;32.60;94.80;;;;;;5067546;28;20278;-70
2022/07/14 12:18:06;;;;;;;11.35;3.13;;;32.50;95.20;;;;;;5084570;28;20701;-70
2022/07/14 12:20:48;;;;;;;8.30;2.60;;;32.50;95.50;;;;;;5065464;28;20285;-70
2022/07/14 12:23:16;;;;;;;5.97;3.10;;;32.40;96.80;;;;;;5057110;28;20218;-71
2022/07/14 12:25:47;;;;;;;7.82;2.95;;;32.40;96.90;;;;;;5085851;28;20472;-70
2022/07/14 12:28:17;;;;;;;5.97;2.97;;;32.40;98.70;;;;;;5066029;28;20372;-70
2022/07/14 12:30:50;;;;;;;16.02;3.53;;;32.30;99.80;;;;;;5068551;28;20274;-71
2022/07/14 12:33:25;;;;;;;8.82;2.95;;;32.20;99.90;;;;;;5085173;28;20208;-71
2022/07/14 12:35:59;;;;;;;8.93;3.47;;;32.20;99.40;;;;;;5089991;28;20272;-71
2022/07/14 12:38:29;;;;;;;8.68;2.90;;;32.10;99.90;;;;;;5098169;28;20227;-70
2022/07/14 12:41:02;;;;;;;8.65;3.33;;;32.10;99.90;;;;;;5088476;28;20197;-72
2022/07/14 12:43:33;;;;;;;12.00;3.35;;;32.00;99.90;;;;;;5089884;28;20237;-70
2022/07/14 12:46:06;;;;;;;8.48;3.33;;;32.10;99.90;;;;;;5072206;28;20647;-73
2022/07/14 12:48:57;;;;;;;10.25;3.42;;;31.90;99.90;;;;;;5090938;28;20577;-70
2022/07/14 12:51:26;;;;;;;6.30;3.47;;;31.80;99.90;;;;;;5091930;28;20174;-71
2022/07/14 12:54:33;;;;;;;9.68;3.50;;;31.70;99.90;;;;;;5091603;28;20267;-70
2022/07/14 12:57:00;;;;;;;7.68;3.92;;;31.60;99.90;;;;;;5052035;28;20193;-70
2022/07/14 12:59:33;;;;;;;6.88;3.58;;;31.90;99.90;;;;;;5055719;28;20728;-71
2022/07/14 13:02:07;;;;;;;10.68;3.45;;;31.80;99.90;;;;;;5090073;28;20257;-71
2022/07/14 13:04:40;;;;;;;6.15;3.55;;;31.70;99.90;;;;;;5071701;28;20182;-70
2022/07/14 13:07:29;;;;;;;10.75;3.53;;;31.70;99.90;;;;;;5082256;28;20194;-71
2022/07/14 13:10:19;;;;;;;8.73;3.58;;;31.80;99.90;;;;;;5074398;28;20235;-70